Time;durP1;ratioP1;P1;durP2;ratioP2;P2;SDS_P1;SDS_P2;PMS_P1;PMS_P2;Temp;Humidity;BMP_temperature;BMP_pressure;BME280_temperature;BME280_humidity;BME280_pressure;Samples;Min_cycle;Max_cycle;Signal;HPM_P1;HPM_P2
2023/12/12 00:01:35;;;;;;;41.80;21.35;;;;;;;3.34;100.00;98079.66;5052545;28;20209;-58
2023/12/12 00:04:00;;;;;;;34.42;20.27;;;;;;;2.96;100.00;97997.94;5052406;28;20256;-58
2023/12/12 00:06:29;;;;;;;38.58;21.67;;;;;;;3.29;100.00;98042.44;5052404;28;20213;-58
2023/12/12 00:08:55;;;;;;;34.70;20.92;;;;;;;3.52;100.00;98070.34;5052241;28;20206;-57
2023/12/12 00:11:20;;;;;;;39.15;22.42;;;;;;;3.66;100.00;98083.31;5052527;28;20189;-57
2023/12/12 00:13:46;;;;;;;38.15;22.20;;;;;;;3.31;100.00;97997.16;5052556;28;20578;-58
2023/12/12 00:16:12;;;;;;;40.33;24.77;;;;;;;3.81;100.00;98074.94;5052260;28;20178;-58
2023/12/12 00:18:38;;;;;;;43.10;25.90;;;;;;;3.55;100.00;98004.53;5052265;28;20251;-57
2023/12/12 00:21:04;;;;;;;43.92;23.38;;;;;;;3.78;100.00;98034.97;5052079;28;20272;-58
2023/12/12 00:23:30;;;;;;;35.80;21.08;;;;;;;3.76;100.00;98026.53;5052123;28;20181;-57
2023/12/12 00:25:56;;;;;;;37.25;21.50;;;;;;;3.80;100.00;97999.88;5052030;28;20536;-57
2023/12/12 00:28:21;;;;;;;44.55;24.60;;;;;;;3.70;100.00;97952.66;5051929;28;20578;-58
2023/12/12 00:30:47;;;;;;;45.83;25.75;;;;;;;3.54;100.00;97904.84;5051973;28;20169;-58
2023/12/12 00:33:12;;;;;;;45.97;25.00;;;;;;;4.07;100.00;97995.16;5051644;28;20180;-58
2023/12/12 00:35:38;;;;;;;44.67;24.67;;;;;;;4.10;100.00;98000.97;5051868;28;20231;-58
2023/12/12 00:38:03;;;;;;;35.85;21.98;;;;;;;4.02;100.00;97987.72;5051804;28;20201;-58
2023/12/12 00:40:29;;;;;;;36.55;21.58;;;;;;;4.25;100.00;98041.19;5051818;28;20193;-58
2023/12/12 00:42:54;;;;;;;27.75;18.00;;;;;;;4.22;100.00;98010.63;5051814;28;20173;-57
2023/12/12 00:45:20;;;;;;;33.35;17.15;;;;;;;4.30;100.00;98026.41;5051763;28;20204;-58
2023/12/12 00:47:45;;;;;;;35.10;21.10;;;;;;;3.83;100.00;97950.31;5051570;28;20173;-58
2023/12/12 00:50:11;;;;;;;35.08;20.13;;;;;;;3.88;100.00;97963.69;5051337;28;20178;-58
2023/12/12 00:52:36;;;;;;;34.42;20.90;;;;;;;3.72;100.00;97922.69;5051374;28;20173;-58
2023/12/12 00:55:02;;;;;;;38.47;20.58;;;;;;;4.24;100.00;98002.84;5051632;28;20212;-58
2023/12/12 00:57:27;;;;;;;30.85;19.20;;;;;;;4.26;100.00;97996.72;5051638;28;20531;-57
2023/12/12 00:59:53;;;;;;;31.05;18.92;;;;;;;4.02;100.00;97954.44;5051406;28;20614;-58
2023/12/12 01:02:23;;;;;;;34.22;19.40;;;;;;;4.11;100.00;97963.41;5051512;28;20232;-57
2023/12/12 01:04:48;;;;;;;32.15;19.48;;;;;;;4.27;100.00;97992.47;5051339;28;20250;-58
2023/12/12 01:07:14;;;;;;;34.63;19.70;;;;;;;4.30;100.00;97993.13;5051461;28;20174;-58
2023/12/12 01:09:39;;;;;;;32.10;20.20;;;;;;;4.02;100.00;97944.22;5051365;28;20237;-57
2023/12/12 01:12:05;;;;;;;33.95;17.80;;;;;;;3.92;100.00;97899.50;5051107;28;20217;-57
2023/12/12 01:14:31;;;;;;;32.83;19.10;;;;;;;3.90;100.00;97896.19;5051484;28;20177;-58
2023/12/12 01:17:00;;;;;;;24.25;14.15;;;;;;;4.52;100.00;97985.19;5050963;28;20181;-57
2023/12/12 01:19:25;;;;;;;27.23;15.73;;;;;;;4.49;100.00;97975.09;5051466;28;20281;-58
2023/12/12 01:21:51;;;;;;;29.13;15.05;;;;;;;4.65;100.00;98004.13;5050952;28;20628;-58
2023/12/12 01:24:16;;;;;;;23.38;13.90;;;;;;;4.41;100.00;97965.25;5050921;28;20178;-58
2023/12/12 01:26:42;;;;;;;24.60;14.52;;;;;;;4.41;100.00;97967.81;5051309;28;20181;-58
2023/12/12 01:29:07;;;;;;;24.67;14.55;;;;;;;4.08;100.00;97920.06;5050248;28;20236;-58
2023/12/12 01:31:33;;;;;;;25.25;15.00;;;;;;;4.74;100.00;98024.16;5051197;28;20243;-57
2023/12/12 01:33:58;;;;;;;25.98;13.82;;;;;;;4.75;100.00;98038.63;5051215;28;20636;-58
2023/12/12 01:36:24;;;;;;;30.40;16.15;;;;;;;4.44;100.00;97987.31;5051153;28;20174;-58
2023/12/12 01:38:50;;;;;;;45.08;24.48;;;;;;;4.45;100.00;97977.00;5051165;28;20181;-58
2023/12/12 01:41:15;;;;;;;70.30;32.40;;;;;;;5.03;100.00;98037.16;5051137;28;20189;-58
2023/12/12 01:43:41;;;;;;;67.03;33.20;;;;;;;4.37;100.00;97937.31;5051147;28;20173;-57
2023/12/12 01:46:08;;;;;;;64.75;33.50;;;;;;;4.66;100.00;98000.69;5051132;28;20694;-58
2023/12/12 01:48:35;;;;;;;80.95;39.40;;;;;;;4.56;100.00;98000.31;5050862;28;20202;-58
2023/12/12 01:51:01;;;;;;;77.13;35.70;;;;;;;4.54;100.00;98020.06;5050973;28;20178;-57
2023/12/12 01:53:35;;;;;;;69.22;35.20;;;;;;;3.99;100.00;97946.94;5051020;28;20178;-58
2023/12/12 01:56:02;;;;;;;74.88;37.03;;;;;;;3.95;100.00;97965.91;5051091;28;20178;-57
2023/12/12 01:58:28;;;;;;;72.03;34.92;;;;;;;3.85;100.00;97963.88;5051010;28;20223;-57
2023/12/12 02:00:54;;;;;;;69.45;33.65;;;;;;;4.14;100.00;98005.03;5050960;28;20174;-58
2023/12/12 02:03:23;;;;;;;70.40;35.70;;;;;;;4.17;100.00;98016.84;5050633;28;20178;-57
2023/12/12 02:05:48;;;;;;;73.70;36.60;;;;;;;4.11;100.00;98007.75;5050859;28;20181;-58
2023/12/12 02:08:14;;;;;;;75.25;36.03;;;;;;;3.62;100.00;97920.69;5050770;28;20211;-57
2023/12/12 02:10:40;;;;;;;71.28;34.08;;;;;;;4.10;100.00;97995.88;5050928;28;20204;-58
2023/12/12 02:13:06;;;;;;;81.13;35.38;;;;;;;3.76;100.00;97937.00;5031356;28;20190;-57
2023/12/12 02:15:31;;;;;;;68.70;33.38;;;;;;;3.96;100.00;97962.44;5032132;28;20190;-57
2023/12/12 02:17:57;;;;;;;69.18;33.63;;;;;;;3.65;100.00;97943.53;5031493;28;20210;-58
2023/12/12 02:20:23;;;;;;;70.25;32.80;;;;;;;3.75;100.00;97943.03;5031976;28;20175;-57
2023/12/12 02:22:48;;;;;;;72.75;31.25;;;;;;;3.43;100.00;97884.94;5031683;28;20358;-58
2023/12/12 02:25:18;;;;;;;70.07;33.47;;;;;;;4.08;100.00;97982.28;5032045;28;20285;-58
2023/12/12 02:27:43;;;;;;;71.95;36.15;;;;;;;3.66;100.00;97874.41;5031829;28;20183;-58
2023/12/12 02:30:11;;;;;;;74.53;34.15;;;;;;;4.30;100.00;97959.00;5011888;28;20680;-57
2023/12/12 02:32:36;;;;;;;73.43;34.17;;;;;;;4.25;100.00;97954.13;5012053;28;20187;-58
2023/12/12 02:35:02;;;;;;;72.15;32.65;;;;;;;4.21;100.00;97921.06;5012001;28;20566;-58
2023/12/12 02:37:27;;;;;;;61.03;33.80;;;;;;;3.89;100.00;97871.53;5011940;28;20183;-58
2023/12/12 02:39:53;;;;;;;66.53;33.90;;;;;;;4.14;100.00;97920.56;5011886;28;20637;-58
2023/12/12 02:42:18;;;;;;;62.30;31.17;;;;;;;4.19;100.00;97928.84;5011910;28;20288;-58
2023/12/12 02:44:44;;;;;;;65.03;33.33;;;;;;;3.97;100.00;97871.13;5011808;28;20282;-58
2023/12/12 02:47:09;;;;;;;63.97;31.95;;;;;;;4.06;100.00;97863.81;5011828;28;20537;-58
2023/12/12 02:49:35;;;;;;;71.90;32.42;;;;;;;3.84;100.00;97818.94;5016059;28;20249;-58
2023/12/12 02:52:00;;;;;;;64.50;31.23;;;;;;;4.34;100.00;97899.91;5051462;28;20227;-58
2023/12/12 02:54:26;;;;;;;17.77;7.72;;;;;;;4.17;100.00;97828.25;5051447;28;20644;-58
2023/12/12 02:56:51;;;;;;;4.90;3.20;;;;;;;4.27;100.00;97765.41;5051425;28;20177;-57
2023/12/12 02:59:17;;;;;;;2.25;1.90;;;;;;;5.42;100.00;97865.69;5051266;28;20185;-57
2023/12/12 03:01:42;;;;;;;2.13;2.03;;;;;;;5.37;100.00;97800.19;5051257;28;20182;-57
2023/12/12 03:04:08;;;;;;;3.45;1.88;;;;;;;5.76;100.00;97855.16;5051153;28;20263;-58
2023/12/12 03:06:33;;;;;;;2.58;2.38;;;;;;;5.49;100.00;97802.06;5051270;28;20640;-57
2023/12/12 03:08:58;;;;;;;25.75;13.95;;;;;;;5.99;100.00;97890.63;5053458;28;20552;-58
2023/12/12 03:11:24;;;;;;;27.13;14.88;;;;;;;5.62;100.00;97846.59;5053123;28;20177;-58
2023/12/12 03:13:49;;;;;;;22.98;13.70;;;;;;;5.96;100.00;97901.09;5053415;28;20572;-58
2023/12/12 03:16:15;;;;;;;21.58;12.82;;;;;;;5.34;100.00;97831.13;5030903;28;20183;-58
2023/12/12 03:18:40;;;;;;;20.80;12.35;;;;;;;5.76;100.00;97911.63;5030844;28;20750;-58
2023/12/12 03:21:06;;;;;;;29.40;16.05;;;;;;;5.19;100.00;97843.09;5030958;28;20190;-58
2023/12/12 03:23:32;;;;;;;28.83;16.30;;;;;;;5.57;100.00;97962.34;5029754;28;20198;-58
2023/12/12 03:25:57;;;;;;;42.92;22.38;;;;;;;5.63;100.00;97997.91;5030939;28;20209;-58
2023/12/12 03:28:24;;;;;;;50.50;28.23;;;;;;;4.97;100.00;97934.09;5030862;28;20304;-58
2023/12/12 03:30:50;;;;;;;57.13;29.30;;;;;;;4.90;100.00;97979.72;5030738;28;20703;-57
2023/12/12 03:33:15;;;;;;;60.50;32.13;;;;;;;4.80;100.00;98006.75;5030859;28;20178;-58
2023/12/12 03:35:41;;;;;;;60.28;31.10;;;;;;;4.49;100.00;98011.78;5030667;28;20260;-57
2023/12/12 03:38:06;;;;;;;61.05;31.50;;;;;;;3.89;100.00;97925.25;5030748;28;20186;-58
2023/12/12 03:40:32;;;;;;;67.50;33.88;;;;;;;3.98;100.00;97967.47;5030717;28;20183;-57
2023/12/12 03:42:57;;;;;;;56.88;31.33;;;;;;;4.27;100.00;98018.06;5030629;28;20220;-57
2023/12/12 03:45:23;;;;;;;67.38;33.22;;;;;;;4.07;100.00;97982.38;5030711;28;20201;-57
2023/12/12 03:47:48;;;;;;;65.25;33.75;;;;;;;4.30;100.00;98011.06;5046665;28;20241;-57
2023/12/12 03:50:14;;;;;;;77.13;35.03;;;;;;;4.28;100.00;98012.88;5052829;28;20223;-57
2023/12/12 03:52:40;;;;;;;70.88;33.92;;;;;;;4.17;100.00;98012.56;5052720;28;20226;-57
2023/12/12 03:55:07;;;;;;;72.25;35.20;;;;;;;3.85;100.00;97974.09;5052604;28;20177;-57
2023/12/12 03:57:32;;;;;;;74.55;35.42;;;;;;;3.86;100.00;97957.84;5052532;28;20192;-57
2023/12/12 03:59:58;;;;;;;74.22;37.17;;;;;;;3.88;100.00;97951.75;5052587;28;20174;-58
2023/12/12 04:02:23;;;;;;;72.22;35.17;;;;;;;3.63;100.00;97928.25;5052542;28;20199;-58
2023/12/12 04:04:49;;;;;;;77.10;35.15;;;;;;;3.35;100.00;97889.59;5052418;28;20174;-58
2023/12/12 04:07:16;;;;;;;65.70;34.40;;;;;;;3.76;100.00;97939.56;5052426;28;20257;-58
2023/12/12 04:09:41;;;;;;;72.03;35.72;;;;;;;3.65;100.00;97905.16;5052250;28;20324;-58
2023/12/12 04:12:07;;;;;;;57.97;31.50;;;;;;;4.17;100.00;97981.84;5052315;28;20632;-55
2023/12/12 04:14:33;;;;;;;70.35;32.90;;;;;;;3.96;100.00;97949.63;5051978;28;20177;-56
2023/12/12 04:16:58;;;;;;;59.05;30.52;;;;;;;4.29;100.00;97982.94;5051850;28;20178;-57
2023/12/12 04:19:23;;;;;;;63.63;31.73;;;;;;;4.14;100.00;97946.16;5052359;28;20185;-57
2023/12/12 04:21:49;;;;;;;64.15;32.58;;;;;;;3.95;100.00;97909.59;5051774;28;20566;-57
2023/12/12 04:24:14;;;;;;;64.40;33.30;;;;;;;4.49;100.00;97975.91;5052086;28;20185;-56
2023/12/12 04:26:40;;;;;;;64.10;31.60;;;;;;;4.00;100.00;97876.09;5051984;28;20255;-57
2023/12/12 04:29:06;;;;;;;55.80;29.77;;;;;;;4.02;100.00;97887.91;5051852;28;20612;-57
2023/12/12 04:31:31;;;;;;;55.70;30.95;;;;;;;4.62;100.00;97989.75;5051970;28;20182;-57
2023/12/12 04:33:57;;;;;;;67.45;31.95;;;;;;;4.37;100.00;97945.00;5051674;28;20201;-57
2023/12/12 04:36:22;;;;;;;65.82;32.95;;;;;;;4.29;100.00;97947.94;5051757;28;20181;-56
2023/12/12 04:38:48;;;;;;;56.78;31.13;;;;;;;4.44;100.00;97977.88;5051815;28;20652;-57
2023/12/12 04:41:13;;;;;;;65.78;31.35;;;;;;;4.69;100.00;98021.84;5051790;28;20173;-56
2023/12/12 04:43:39;;;;;;;60.15;31.42;;;;;;;4.34;100.00;97999.75;5051788;28;20174;-57
2023/12/12 04:46:05;;;;;;;67.32;30.88;;;;;;;4.17;100.00;97960.53;5051730;28;20276;-57
2023/12/12 04:48:32;;;;;;;63.97;29.33;;;;;;;4.57;100.00;98007.13;5051373;28;20208;-57
2023/12/12 04:51:01;;;;;;;55.42;30.05;;;;;;;4.18;100.00;97952.78;5051322;28;20538;-57
2023/12/12 04:53:26;;;;;;;56.13;29.25;;;;;;;3.98;100.00;97914.53;5051664;28;20174;-56
2023/12/12 04:55:52;;;;;;;54.65;29.50;;;;;;;4.24;100.00;97960.16;5051518;28;20562;-57
2023/12/12 04:58:17;;;;;;;60.92;29.08;;;;;;;4.14;100.00;97932.53;5051540;28;20231;-56
2023/12/12 05:00:43;;;;;;;60.67;28.45;;;;;;;4.17;100.00;97892.25;5051525;28;20284;-57
2023/12/12 05:03:08;;;;;;;55.78;27.90;;;;;;;4.28;100.00;97923.25;5051510;28;20178;-57
2023/12/12 05:05:34;;;;;;;55.92;30.73;;;;;;;4.13;100.00;97898.41;5051459;28;20174;-57
2023/12/12 05:07:59;;;;;;;57.00;28.65;;;;;;;4.14;100.00;97910.31;5051296;28;20630;-57
2023/12/12 05:10:25;;;;;;;55.72;28.35;;;;;;;4.28;100.00;97924.97;5051454;28;20620;-57
2023/12/12 05:12:50;;;;;;;59.45;28.98;;;;;;;4.15;100.00;97911.97;5051333;28;20174;-57
2023/12/12 05:15:16;;;;;;;71.13;31.95;;;;;;;4.05;100.00;97905.69;5051643;28;20255;-57
2023/12/12 05:17:41;;;;;;;57.45;30.10;;;;;;;4.10;100.00;97925.91;5051187;28;20587;-57
2023/12/12 05:20:09;;;;;;;69.38;30.73;;;;;;;4.49;100.00;97983.59;5051371;28;20174;-57
2023/12/12 05:22:34;;;;;;;50.97;28.88;;;;;;;4.22;100.00;97918.44;5051198;28;20181;-57
2023/12/12 05:25:00;;;;;;;75.03;39.65;;;;;;;4.71;100.00;97999.53;5051267;28;20180;-57
2023/12/12 05:27:25;;;;;;;43.10;23.48;;;;;;;4.38;100.00;97944.91;5050999;28;20180;-57
2023/12/12 05:29:51;;;;;;;48.38;24.15;;;;;;;4.54;100.00;97968.03;5051097;28;20694;-57
2023/12/12 05:32:16;;;;;;;52.25;27.35;;;;;;;4.70;100.00;97984.22;5050931;28;20178;-56
2023/12/12 05:34:42;;;;;;;40.80;23.65;;;;;;;4.72;100.00;97987.56;5051186;28;20166;-57
2023/12/12 05:37:08;;;;;;;46.33;25.70;;;;;;;4.32;100.00;97903.44;5050868;28;20193;-57
2023/12/12 05:39:33;;;;;;;47.85;24.92;;;;;;;4.93;100.00;98010.31;5050852;28;20192;-57
2023/12/12 05:41:59;;;;;;;66.35;34.10;;;;;;;4.63;100.00;97970.09;5050999;28;20265;-57
2023/12/12 05:44:24;;;;;;;30.45;18.67;;;;;;;4.62;100.00;97961.56;5051117;28;20173;-57
2023/12/12 05:46:50;;;;;;;51.75;25.98;;;;;;;4.96;100.00;98015.28;5052524;28;20185;-57
2023/12/12 05:49:16;;;;;;;35.78;18.38;;;;;;;4.25;100.00;97920.84;5032364;28;20696;-57
2023/12/12 05:51:42;;;;;;;38.88;21.15;;;;;;;4.54;100.00;97966.25;5032562;28;20235;-57
2023/12/12 05:54:13;;;;;;;28.23;16.98;;;;;;;4.29;100.00;97917.22;5032449;28;20178;-57
2023/12/12 05:56:41;;;;;;;30.33;20.42;;;;;;;4.75;100.00;98008.72;5032579;28;20178;-57
2023/12/12 05:59:06;;;;;;;31.92;19.70;;;;;;;4.63;100.00;97996.56;5032381;28;20191;-57
2023/12/12 06:01:31;;;;;;;28.17;16.02;;;;;;;4.16;100.00;97923.88;5032470;28;20224;-57
2023/12/12 06:03:58;;;;;;;24.55;17.17;;;;;;;4.68;100.00;98014.22;5032254;28;20191;-57
2023/12/12 06:06:23;;;;;;;26.75;17.08;;;;;;;4.73;100.00;98031.00;5032353;28;20187;-57
2023/12/12 06:08:49;;;;;;;20.73;12.82;;;;;;;4.31;100.00;97984.53;5032123;28;20221;-57
2023/12/12 06:11:16;;;;;;;29.30;16.55;;;;;;;4.36;100.00;97971.50;5032220;28;20216;-57
2023/12/12 06:13:41;;;;;;;37.42;21.30;;;;;;;4.29;100.00;97957.34;5032036;28;20190;-57
2023/12/12 06:16:07;;;;;;;19.05;13.18;;;;;;;4.34;100.00;97984.41;5032159;28;20182;-57
2023/12/12 06:18:32;;;;;;;31.67;17.63;;;;;;;4.16;100.00;97958.88;5031874;28;20233;-57
2023/12/12 06:20:58;;;;;;;20.63;11.90;;;;;;;4.65;100.00;98045.97;5049628;28;20190;-57
2023/12/12 06:23:23;;;;;;;20.95;12.10;;;;;;;4.60;100.00;98022.31;5054413;28;20725;-57
2023/12/12 06:25:49;;;;;;;16.23;9.88;;;;;;;4.79;100.00;98043.50;5054434;28;20174;-57
2023/12/12 06:28:14;;;;;;;16.63;9.23;;;;;;;4.36;100.00;97967.22;5054191;28;20259;-57
2023/12/12 06:30:40;;;;;;;19.33;11.35;;;;;;;4.87;100.00;98038.84;5031697;28;20796;-57
2023/12/12 06:33:05;;;;;;;23.42;12.05;;;;;;;4.55;100.00;97975.59;5031741;28;20198;-57
2023/12/12 06:35:31;;;;;;;30.27;16.48;;;;;;;4.89;100.00;98031.06;5031779;28;20285;-57
2023/12/12 06:37:57;;;;;;;51.85;25.27;;;;;;;4.80;100.00;98009.31;5031949;28;20278;-57
2023/12/12 06:40:22;;;;;;;71.30;31.73;;;;;;;4.73;100.00;97978.97;5031654;28;20182;-57
2023/12/12 06:42:48;;;;;;;69.15;32.80;;;;;;;4.40;100.00;97927.75;5031515;28;20187;-57
2023/12/12 06:45:13;;;;;;;63.42;30.33;;;;;;;5.02;100.00;98029.53;5031577;28;20206;-57
2023/12/12 06:47:39;;;;;;;33.92;16.55;;;;;;;4.94;100.00;98016.25;5031607;28;20181;-57
2023/12/12 06:50:05;;;;;;;51.40;24.27;;;;;;;5.18;100.00;98046.56;5031446;28;20693;-57
2023/12/12 06:52:32;;;;;;;56.28;27.13;;;;;;;5.20;100.00;98062.69;5031437;28;20265;-57
2023/12/12 06:54:58;;;;;;;67.85;32.15;;;;;;;5.16;100.00;98048.41;5031207;28;20591;-57
2023/12/12 06:57:25;;;;;;;54.72;29.27;;;;;;;5.32;100.00;98059.50;5031045;28;20187;-57
2023/12/12 06:59:51;;;;;;;56.53;30.52;;;;;;;4.82;100.00;97960.53;5031272;28;20231;-57
2023/12/12 07:02:17;;;;;;;63.58;33.05;;;;;;;4.86;100.00;97951.78;5061871;28;20185;-57
2023/12/12 07:04:42;;;;;;;58.97;30.63;;;;;;;5.53;100.00;98047.28;5071133;28;20664;-57
2023/12/12 07:07:09;;;;;;;56.67;30.58;;;;;;;5.44;100.00;98025.50;5071093;28;20177;-57
2023/12/12 07:09:35;;;;;;;66.45;32.05;;;;;;;5.34;100.00;97992.72;5070934;28;20216;-57
2023/12/12 07:12:00;;;;;;;67.13;35.25;;;;;;;5.16;100.00;97953.53;5071012;28;20200;-57
2023/12/12 07:14:26;;;;;;;74.35;36.28;;;;;;;5.25;100.00;97947.06;5071005;28;20189;-57
2023/12/12 07:16:51;;;;;;;104.72;43.65;;;;;;;5.73;100.00;98009.34;5070941;28;20184;-57
2023/12/12 07:19:16;;;;;;;108.40;45.50;;;;;;;6.04;100.00;98042.69;5069608;28;20670;-57
2023/12/12 07:21:42;;;;;;;100.13;41.90;;;;;;;6.09;100.00;98043.25;5070312;28;20193;-57
2023/12/12 07:24:10;;;;;;;82.03;37.95;;;;;;;6.28;100.00;98056.69;5070565;28;20292;-56
2023/12/12 07:26:35;;;;;;;78.75;38.42;;;;;;;6.03;100.00;98015.34;5034890;28;20226;-57
2023/12/12 07:29:01;;;;;;;83.63;44.72;;;;;;;6.12;100.00;98008.88;5030654;28;20283;-57
2023/12/12 07:31:26;;;;;;;81.05;42.97;;;;;;;5.98;100.00;98003.66;5030588;28;20182;-57
2023/12/12 07:33:52;;;;;;;69.75;39.00;;;;;;;6.11;100.00;98007.22;5030795;28;20178;-56
2023/12/12 07:36:17;;;;;;;72.35;40.47;;;;;;;5.99;100.00;97990.75;5030483;28;20731;-57
2023/12/12 07:38:43;;;;;;;91.63;43.42;;;;;;;6.28;100.00;98049.00;5030414;28;20214;-57
2023/12/12 07:41:10;;;;;;;89.15;45.42;;;;;;;6.37;100.00;98060.47;5030554;28;20187;-57
2023/12/12 07:43:36;;;;;;;78.78;42.88;;;;;;;6.11;100.00;98025.19;5029576;28;20656;-57
2023/12/12 07:46:01;;;;;;;63.55;35.45;;;;;;;6.43;100.00;98098.69;5029573;28;20198;-57
2023/12/12 07:48:27;;;;;;;69.40;35.25;;;;;;;6.25;100.00;98068.91;5030292;28;20720;-57
2023/12/12 07:50:52;;;;;;;62.22;33.83;;;;;;;6.38;100.00;98095.53;5029621;28;20198;-57
2023/12/12 07:53:18;;;;;;;57.67;33.08;;;;;;;5.95;100.00;98029.53;5029985;28;20190;-57
2023/12/12 07:55:43;;;;;;;72.95;40.95;;;;;;;6.10;100.00;98067.16;5030310;28;20269;-57
2023/12/12 07:58:09;;;;;;;77.13;36.08;;;;;;;6.21;100.00;98073.38;5032013;28;20229;-57
2023/12/12 08:00:34;;;;;;;78.28;36.58;;;;;;;6.41;100.00;98116.75;5032608;28;20171;-57
2023/12/12 08:03:00;;;;;;;70.97;35.28;;;;;;;5.93;100.00;98026.19;5032606;28;20185;-57
2023/12/12 08:05:26;;;;;;;71.75;35.10;;;;;;;6.11;100.00;98054.25;5032488;28;20182;-57
2023/12/12 08:07:52;;;;;;;65.57;33.97;;;;;;;5.93;100.00;98027.03;5032411;28;20201;-56
2023/12/12 08:10:18;;;;;;;64.28;33.30;;;;;;;6.51;100.00;98107.59;5031779;28;20175;-57
2023/12/12 08:12:43;;;;;;;66.53;33.95;;;;;;;6.09;100.00;98038.13;5032449;28;20656;-57
2023/12/12 08:15:09;;;;;;;74.10;33.05;;;;;;;6.30;100.00;98059.19;5032323;28;20220;-57
2023/12/12 08:17:34;;;;;;;64.80;33.70;;;;;;;6.09;100.00;98021.88;5032055;28;20175;-57
2023/12/12 08:20:00;;;;;;;66.97;33.40;;;;;;;6.14;100.00;98027.56;5032011;28;20232;-57
2023/12/12 08:22:25;;;;;;;62.60;34.60;;;;;;;6.33;100.00;98059.00;5029625;28;20208;-57
2023/12/12 08:24:53;;;;;;;65.35;34.40;;;;;;;6.42;100.00;98066.19;5029963;28;20210;-57
2023/12/12 08:27:18;;;;;;;60.30;33.35;;;;;;;6.17;100.00;98005.09;5029705;28;20639;-58
2023/12/12 08:29:45;;;;;;;57.45;32.42;;;;;;;6.43;100.00;98048.13;5009717;28;20253;-58
2023/12/12 08:32:11;;;;;;;56.72;32.20;;;;;;;6.64;100.00;98088.00;5009851;28;20273;-58
2023/12/12 08:34:36;;;;;;;68.05;34.28;;;;;;;6.10;100.00;98003.81;5009799;28;20693;-58
2023/12/12 08:37:03;;;;;;;59.33;33.97;;;;;;;6.37;100.00;98039.94;5010053;28;20202;-58
2023/12/12 08:39:30;;;;;;;64.57;32.60;;;;;;;6.70;100.00;98081.69;5009729;28;20195;-58
2023/12/12 08:41:57;;;;;;;60.38;33.78;;;;;;;6.58;100.00;98057.50;5009667;28;20198;-58
2023/12/12 08:44:23;;;;;;;66.45;33.78;;;;;;;6.38;100.00;98021.88;5009560;28;20636;-58
2023/12/12 08:46:54;;;;;;;64.40;31.95;;;;;;;7.00;100.00;98114.13;5009566;28;20686;-59
2023/12/12 08:49:20;;;;;;;57.85;31.52;;;;;;;6.58;100.00;98036.13;4989415;28;20761;-57
2023/12/12 08:51:45;;;;;;;58.53;33.00;;;;;;;6.48;100.00;98010.13;4989871;28;20291;-57
2023/12/12 08:54:11;;;;;;;59.78;34.95;;;;;;;7.01;100.00;98071.22;4989771;28;20685;-58
2023/12/12 08:56:38;;;;;;;67.18;38.35;;;;;;;6.58;100.00;98025.84;4989845;28;20187;-57
2023/12/12 08:59:04;;;;;;;67.22;38.05;;;;;;;7.15;100.00;98095.22;4993104;28;20198;-57
2023/12/12 09:01:30;;;;;;;59.92;35.85;;;;;;;6.96;100.00;98063.81;5009504;28;20195;-58
2023/12/12 09:03:56;;;;;;;64.95;37.30;;;;;;;7.14;100.00;98083.28;5009375;28;20594;-56
2023/12/12 09:06:22;;;;;;;63.60;35.75;;;;;;;6.51;100.00;97991.97;5009483;28;20241;-55
2023/12/12 09:08:47;;;;;;;63.88;37.17;;;;;;;7.00;100.00;98080.69;5009139;28;20222;-57
2023/12/12 09:11:13;;;;;;;72.25;34.90;;;;;;;6.95;100.00;98077.59;5009364;28;20648;-58
2023/12/12 09:13:42;;;;;;;65.10;35.60;;;;;;;6.84;100.00;98046.53;5009224;28;20187;-58
2023/12/12 09:16:07;;;;;;;69.75;34.75;;;;;;;7.06;100.00;98092.38;5009250;28;20684;-58
2023/12/12 09:18:33;;;;;;;61.67;33.78;;;;;;;6.61;100.00;98000.78;5009123;28;20235;-57
2023/12/12 09:20:58;;;;;;;70.90;36.20;;;;;;;7.17;100.00;98093.38;5027542;28;20205;-58
2023/12/12 09:23:27;;;;;;;68.05;34.47;;;;;;;6.82;100.00;98040.63;5035572;28;20224;-57
2023/12/12 09:25:54;;;;;;;62.05;36.70;;;;;;;7.15;100.00;98090.06;5035203;28;20539;-58
2023/12/12 09:28:19;;;;;;;76.22;34.78;;;;;;;7.07;100.00;98082.00;5035287;28;20628;-58
2023/12/12 09:30:45;;;;;;;68.18;35.03;;;;;;;6.64;100.00;98005.72;5035401;28;20188;-58
2023/12/12 09:33:10;;;;;;;58.63;33.03;;;;;;;7.28;100.00;98079.88;5035352;28;20549;-58
2023/12/12 09:35:36;;;;;;;54.80;31.20;;;;;;;7.26;100.00;98077.38;5035324;28;20174;-57
2023/12/12 09:38:02;;;;;;;55.03;32.58;;;;;;;6.69;100.00;97988.28;5035487;28;20178;-57
2023/12/12 09:40:28;;;;;;;61.00;32.25;;;;;;;7.18;100.00;98069.28;5035108;28;20222;-57
2023/12/12 09:42:53;;;;;;;64.07;33.15;;;;;;;6.97;100.00;98029.44;5035107;28;20261;-57
2023/12/12 09:45:22;;;;;;;60.85;34.42;;;;;;;6.79;100.00;97991.13;5035200;28;20217;-56
2023/12/12 09:47:49;;;;;;;64.10;33.45;;;;;;;6.81;100.00;97997.84;5035073;28;20526;-56
2023/12/12 09:50:16;;;;;;;75.63;41.42;;;;;;;6.99;100.00;98004.44;5034621;28;20593;-58
2023/12/12 09:52:44;;;;;;;71.30;40.25;;;;;;;7.17;100.00;98026.47;5035002;28;20179;-56
2023/12/12 09:55:10;;;;;;;69.38;40.33;;;;;;;7.24;100.00;98017.50;5034994;28;20196;-57
2023/12/12 09:57:35;;;;;;;74.85;40.63;;;;;;;6.95;100.00;97943.00;5034800;28;20739;-56
2023/12/12 10:00:02;;;;;;;70.03;39.67;;;;;;;7.24;100.00;97981.47;5034565;28;20178;-57
2023/12/12 10:02:34;;;;;;;73.25;41.38;;;;;;;7.64;100.00;98024.34;5034815;28;20202;-57
2023/12/12 10:05:03;;;;;;;72.47;41.00;;;;;;;7.65;100.00;98013.16;5034677;28;20637;-56
2023/12/12 10:07:30;;;;;;;69.82;39.55;;;;;;;7.46;100.00;97966.31;5034603;28;20171;-56
2023/12/12 10:09:55;;;;;;;73.95;39.50;;;;;;;7.83;100.00;98006.00;5034567;28;20216;-56
2023/12/12 10:12:21;;;;;;;80.32;42.90;;;;;;;7.50;100.00;97941.19;5034514;28;20175;-57
2023/12/12 10:14:49;;;;;;;79.00;41.92;;;;;;;8.15;100.00;98033.91;5034617;28;20205;-57
2023/12/12 10:17:15;;;;;;;70.93;41.28;;;;;;;8.01;100.00;97997.94;5034502;28;20174;-57
2023/12/12 10:19:41;;;;;;;74.07;41.67;;;;;;;8.06;100.00;97993.31;5034606;28;20228;-57
2023/12/12 10:22:10;;;;;;;76.90;39.67;;;;;;;8.31;100.00;98037.19;5034366;28;20305;-57
2023/12/12 10:24:37;;;;;;;69.75;37.88;;;;;;;7.89;100.00;97956.69;5034384;28;20644;-57
2023/12/12 10:27:06;;;;;;;71.90;40.05;;;;;;;7.89;100.00;97949.78;5034094;28;20202;-57
2023/12/12 10:29:32;;;;;;;79.80;43.42;;;;;;;8.27;100.00;97994.50;5034106;28;20213;-57
2023/12/12 10:32:02;;;;;;;77.00;43.85;;;;;;;8.39;100.00;98001.41;5033786;28;20210;-57
2023/12/12 10:34:27;;;;;;;77.22;41.92;;;;;;;8.20;100.00;97957.19;5034135;28;20191;-57
2023/12/12 10:36:56;;;;;;;75.22;40.28;;;;;;;8.44;100.00;97983.91;5034146;28;20521;-57
2023/12/12 10:39:22;;;;;;;69.15;41.45;;;;;;;8.36;100.00;97960.41;5034078;28;20232;-57
2023/12/12 10:41:57;;;;;;;71.13;39.92;;;;;;;8.92;100.00;98042.50;5034026;28;20171;-58
2023/12/12 10:44:46;;;;;;;72.85;40.55;;;;;;;8.82;100.00;98002.78;5034008;28;20182;-58
2023/12/12 10:47:14;;;;;;;73.63;39.20;;;;;;;8.95;100.00;98003.59;5034002;28;20205;-57
2023/12/12 10:49:43;;;;;;;63.63;38.28;;;;;;;8.73;100.00;97949.22;5033857;28;20248;-57
2023/12/12 10:52:10;;;;;;;69.68;39.38;;;;;;;9.09;100.00;97987.16;5033856;28;20254;-57
2023/12/12 10:54:36;;;;;;;72.88;39.90;;;;;;;9.42;100.00;98034.69;5033798;28;20206;-56
2023/12/12 10:57:03;;;;;;;73.38;41.72;;;;;;;9.29;100.00;98017.56;5033687;28;20232;-58
2023/12/12 10:59:29;;;;;;;71.50;40.97;;;;;;;9.27;100.00;98019.44;5033729;28;20590;-58
2023/12/12 11:01:56;;;;;;;68.05;38.00;;;;;;;9.37;100.00;98028.22;5033688;28;20216;-58
2023/12/12 11:04:24;;;;;;;69.63;39.35;;;;;;;9.36;100.00;98037.69;5033342;28;20627;-57
2023/12/12 11:06:51;;;;;;;84.88;41.03;;;;;;;9.34;100.00;98031.81;5033649;28;20180;-57
2023/12/12 11:09:18;;;;;;;74.03;38.35;;;;;;;9.27;100.00;98006.53;5033271;28;20578;-57
2023/12/12 11:11:48;;;;;;;71.70;40.17;;;;;;;9.51;100.00;98041.81;5033250;28;20679;-57